Time Latitude Longitude Accuracy (66% radius in meters) Altitude (meters) Speed (km/hour) Bearing (degrees) Battery (%) GPS flag
08:14:18 57.204602 60.121803 21.237998962402 332 0.15999999642372 1 46 1 delete
08:14:08 57.204602 60.121797 30.340000152588 333 1.5900000333786 122.69999694824 46 1 delete
08:13:57 57.204601 60.121763 19.720998764038 332 0 0 46 1 delete
08:13:47 57.204601 60.121763 19.720998764038 332 0 0 46 1 delete
08:13:37 57.204601 60.121763 18.203998565674 332 0 0 46 1 delete
08:13:26 57.204601 60.121763 18.203998565674 332 0 0 46 1 delete
08:13:15 57.204601 60.121762 19.720998764038 332 0 0 46 1 delete
08:13:05 57.204600 60.121762 18.203998565674 332 0 0 46 1 delete
08:12:54 57.204598 60.121758 18.203998565674 332 0 0 46 1 delete
08:12:42 57.204596 60.121755 18.203998565674 333 0 0 46 1 delete
08:12:30 57.204595 60.121752 16.687000274658 333 0 0 46 1 delete
08:12:20 57.204594 60.121749 19.720998764038 333 0 0 46 1 delete
08:12:09 57.204593 60.121745 19.720998764038 333 0 0 46 1 delete
08:11:59 57.204593 60.121745 18.203998565674 333 0 0 46 1 delete
08:11:48 57.204593 60.121745 18.203998565674 333 0 0 46 1 delete
08:11:38 57.204592 60.121744 16.687000274658 333 0 0 46 1 delete
08:11:28 57.204592 60.121744 16.687000274658 333 0 0 46 1 delete
08:11:17 57.204591 60.121743 16.687000274658 333 0 0 46 1 delete
08:11:06 57.204590 60.121742 16.687000274658 333 0 0 46 1 delete
08:10:56 57.204589 60.121743 18.203998565674 333 0 0 46 1 delete
08:10:45 57.204589 60.121742 18.203998565674 333 0 0 46 1 delete
08:10:34 57.204588 60.121739 18.203998565674 333 0 0 46 1 delete
08:10:24 57.204587 60.121741 19.720998764038 333 0 0 46 1 delete
08:10:13 57.204583 60.121742 18.203998565674 333 0 0 46 1 delete
08:10:02 57.204581 60.121742 16.687000274658 333 0 0 46 1 delete
08:09:52 57.204578 60.121737 16.687000274658 333 0 0 46 1 delete
08:09:41 57.204580 60.121742 19.720998764038 333 0 0 46 1 delete
08:09:31 57.204572 60.121725 16.687000274658 331 0.61000001430511 26.5 46 1 delete
08:09:21 57.204594 60.121843 15.170000076294 332 0.15000000596046 203.19999694824 46 1 delete
08:09:10 57.204593 60.121837 18.203998565674 330 0.73000001907349 21 46 1 delete
08:09:00 57.204534 60.121884 31.856998443604 331 0 0 46 1 delete
08:08:55 57.204545 60.121872 30.340000152588 331 0 0 46 1 delete
08:08:48 57.204567 60.121841 37.924999237061 331 0.31000000238419 148.30000305176 46 1 delete
09:08:39 57.204620 60.121767 15.170000076294 331 0 0 46 0 delete
08:08:27 57.204576 60.121806 24.271999359131 331 0 0 46 1 delete
09:08:17 57.204620 60.121767 15.170000076294 331 0 0 46 0 delete
08:08:07 57.204588 60.121777 16.687000274658 331 0.5 173.10000610352 46 1 delete
08:07:55 57.204618 60.121767 15.170000076294 331 0 0 46 1 delete
08:07:44 57.204618 60.121767 16.687000274658 331 0 0 46 1 delete
08:07:34 57.204618 60.121767 15.170000076294 331 0 0 46 1 delete
08:07:24 57.204618 60.121767 15.170000076294 331 0 0 46 1 delete
08:07:14 57.204618 60.121767 15.170000076294 331 0 0 46 1 delete
08:07:03 57.204618 60.121767 15.170000076294 331 0 0 46 1 delete
08:06:52 57.204618 60.121767 15.170000076294 331 0 0 46 1 delete
08:06:42 57.204618 60.121767 13.65299987793 331 0 0 46 1 delete
08:06:31 57.204618 60.121767 15.170000076294 331 0 0 46 1 delete
08:06:20 57.204618 60.121767 15.170000076294 331 0 0 46 1 delete
08:06:10 57.204618 60.121767 13.65299987793 331 0 0 46 1 delete
08:06:00 57.204618 60.121766 13.65299987793 331 0 0 46 1 delete
08:05:49 57.204618 60.121766 15.170000076294 331 0 0 46 1 delete